Brunswick, Maine
Current Conditions -  °F | °C
As of 1:53 PM on Thursday 18 Dec 2014 (Local Time) from KIWI Reporting Station
Overcast Overcast  
Wind Chill: 32°   Ceiling: 4700
Heat Index: 37°   Visibility: 10mi
Dew Point: 31°   Wind: 7mph
Humidity: 79%   Direction: NA
Pressure: 29.68"   Gusts: NA
Location:  43.92°N, 69.96°W
Report Text: KIWI 181853Z AUTO VRB06KT 10SM OVC047 03/M01 A2968 RMK AO2 SLP052 T00281006
Loading
Personal Weather Stations






























Interactive Weather Map New forecast layout! Learn more

10-Day Weather Forecast

Advertisements
Track Severe Weather on mobile